Time;durP1;ratioP1;P1;durP2;ratioP2;P2;SDS_P1;SDS_P2;PMS_P1;PMS_P2;Temp;Humidity;BMP_temperature;BMP_pressure;BME280_temperature;BME280_humidity;BME280_pressure;Samples;Min_cycle;Max_cycle;Signal;HPM_P1;HPM_P2
2021/07/13 00:00:39;;;;;;;5.05;2.58;;;;;;;;;;5035624;28;20203;-50
2021/07/13 00:03:06;;;;;;;4.28;2.38;;;;;;;;;;5035687;28;20242;-50
2021/07/13 00:05:33;;;;;;;2.50;2.30;;;;;;;;;;5034809;28;20168;-50
2021/07/13 00:07:59;;;;;;;2.58;2.38;;;;;;;;;;5034793;28;20168;-50
2021/07/13 00:10:26;;;;;;;3.45;2.80;;;;;;;;;;5035459;28;20844;-50
2021/07/13 00:12:53;;;;;;;2.90;2.70;;;;;;;;;;5035651;28;20668;-50
2021/07/13 00:15:21;;;;;;;2.92;2.53;;;;;;;;;;5035060;28;20567;-50
2021/07/13 00:17:49;;;;;;;4.90;2.70;;;;;;;;;;5034908;28;20617;-50
2021/07/13 00:20:15;;;;;;;2.63;2.40;;;;;;;;;;5035248;28;20206;-50
2021/07/13 00:22:41;;;;;;;2.58;2.38;;;;;;;;;;5035343;28;20282;-50
2021/07/13 00:25:07;;;;;;;2.30;2.20;;;;;;;;;;5034896;28;20196;-50
2021/07/13 00:27:33;;;;;;;2.30;2.15;;;;;;;;;;5034547;28;20546;-50
2021/07/13 00:29:59;;;;;;;2.20;2.10;;;;;;;;;;5035264;28;20270;-50
2021/07/13 00:32:25;;;;;;;2.63;2.42;;;;;;;;;;5035236;28;20267;-50
2021/07/13 00:34:51;;;;;;;2.20;2.10;;;;;;;;;;5034496;28;20194;-50
2021/07/13 00:37:17;;;;;;;2.38;2.17;;;;;;;;;;5034705;28;20198;-50
2021/07/13 00:39:43;;;;;;;3.53;2.58;;;;;;;;;;5034830;28;20200;-50
2021/07/13 00:42:16;;;;;;;2.20;2.10;;;;;;;;;;5035130;28;20262;-50
2021/07/13 00:44:42;;;;;;;2.65;2.30;;;;;;;;;;5035116;28;20180;-51
2021/07/13 00:47:09;;;;;;;4.70;2.40;;;;;;;;;;5034675;28;20171;-50
2021/07/13 00:49:35;;;;;;;2.60;2.40;;;;;;;;;;5034925;28;20163;-50
2021/07/13 00:52:01;;;;;;;3.15;2.30;;;;;;;;;;5035003;28;20544;-50
2021/07/13 00:54:28;;;;;;;2.50;2.25;;;;;;;;;;5034413;28;20179;-50
2021/07/13 00:56:56;;;;;;;3.90;2.30;;;;;;;;;;5034616;28;20184;-49
2021/07/13 00:59:22;;;;;;;2.33;2.15;;;;;;;;;;5034773;28;20258;-50
2021/07/13 01:01:48;;;;;;;3.17;2.00;;;;;;;;;;5034869;28;20199;-50
2021/07/13 01:04:15;;;;;;;2.45;2.13;;;;;;;;;;5033435;28;20167;-50
2021/07/13 01:07:10;;;;;;;4.10;2.40;;;;;;;;;;5034192;28;20190;-50
2021/07/13 01:09:48;;;;;;;4.00;2.38;;;;;;;;;;5033803;28;20208;-50
2021/07/13 01:12:29;;;;;;;2.72;2.53;;;;;;;;;;5034679;28;20172;-50
2021/07/13 01:14:57;;;;;;;2.85;2.50;;;;;;;;;;5034363;28;20233;-50
2021/07/13 01:17:29;;;;;;;2.53;2.33;;;;;;;;;;5033924;28;20602;-49
2021/07/13 01:20:30;;;;;;;3.08;2.40;;;;;;;;;;5034606;28;20227;-50
2021/07/13 01:23:22;;;;;;;2.40;2.17;;;;;;;;;;5033801;28;20194;-50
2021/07/13 01:25:58;;;;;;;5.43;2.28;;;;;;;;;;5024972;28;20184;-50
2021/07/13 01:28:26;;;;;;;2.60;2.25;;;;;;;;;;5034394;28;20544;-50
2021/07/13 01:30:57;;;;;;;3.45;2.38;;;;;;;;;;5034518;28;20575;-50
2021/07/13 01:33:24;;;;;;;2.38;2.17;;;;;;;;;;5034148;28;20256;-50
2021/07/13 01:35:52;;;;;;;2.40;2.20;;;;;;;;;;5033594;28;20286;-50
2021/07/13 01:38:21;;;;;;;2.17;2.03;;;;;;;;;;5034133;28;20222;-50
2021/07/13 01:40:48;;;;;;;2.17;2.08;;;;;;;;;;5033794;28;20210;-50
2021/07/13 01:43:14;;;;;;;2.97;2.40;;;;;;;;;;5034292;28;20563;-50
2021/07/13 01:45:41;;;;;;;2.35;2.05;;;;;;;;;;5033511;28;20176;-50
2021/07/13 01:48:10;;;;;;;2.53;1.98;;;;;;;;;;5033786;28;20243;-50
2021/07/13 01:50:36;;;;;;;2.58;2.15;;;;;;;;;;5034358;28;20182;-50
2021/07/13 01:53:02;;;;;;;3.30;1.90;;;;;;;;;;5033863;28;20325;-50
2021/07/13 01:55:32;;;;;;;2.55;2.05;;;;;;;;;;5033623;28;20187;-50
2021/07/13 01:57:59;;;;;;;1.95;1.85;;;;;;;;;;5033409;28;20445;-50
2021/07/13 02:00:25;;;;;;;4.00;2.22;;;;;;;;;;5033762;28;20706;-50
2021/07/13 02:02:52;;;;;;;2.75;2.00;;;;;;;;;;5033944;28;20523;-50
2021/07/13 02:05:19;;;;;;;2.10;2.00;;;;;;;;;;5033584;28;20211;-50
2021/07/13 02:07:49;;;;;;;2.13;2.00;;;;;;;;;;5033385;28;20561;-50
2021/07/13 02:10:16;;;;;;;2.20;2.00;;;;;;;;;;5033867;28;20249;-48
2021/07/13 02:12:42;;;;;;;2.05;1.92;;;;;;;;;;5034039;28;20176;-47
2021/07/13 02:15:09;;;;;;;3.35;1.90;;;;;;;;;;5033685;28;20188;-48
2021/07/13 02:17:35;;;;;;;2.15;1.95;;;;;;;;;;5037219;28;20175;-47
2021/07/13 02:20:03;;;;;;;1.98;1.83;;;;;;;;;;5037541;28;20215;-48
2021/07/13 02:22:29;;;;;;;2.30;2.10;;;;;;;;;;5037639;28;20167;-50
2021/07/13 02:24:55;;;;;;;2.95;2.25;;;;;;;;;;5037044;28;20280;-50
2021/07/13 02:27:21;;;;;;;1.85;1.65;;;;;;;;;;5036824;28;20168;-49
2021/07/13 02:29:47;;;;;;;2.42;2.17;;;;;;;;;;5037498;28;20179;-50
2021/07/13 02:32:19;;;;;;;2.17;1.80;;;;;;;;;;5037438;28;20168;-50
2021/07/13 02:34:47;;;;;;;2.60;1.80;;;;;;;;;;5036882;28;20184;-50
2021/07/13 02:37:13;;;;;;;3.03;1.90;;;;;;;;;;5036942;28;20259;-50
2021/07/13 02:39:39;;;;;;;2.40;2.20;;;;;;;;;;5036836;28;20238;-50
2021/07/13 02:42:06;;;;;;;3.15;1.90;;;;;;;;;;5036959;28;20160;-50
2021/07/13 02:44:33;;;;;;;2.13;1.95;;;;;;;;;;5036763;28;20266;-49
2021/07/13 02:46:59;;;;;;;2.13;1.92;;;;;;;;;;5036777;28;20182;-50
2021/07/13 02:49:30;;;;;;;2.53;2.00;;;;;;;;;;5037166;28;20161;-50
2021/07/13 02:51:58;;;;;;;2.63;2.10;;;;;;;;;;5036944;28;20210;-50
2021/07/13 02:54:25;;;;;;;2.22;1.90;;;;;;;;;;5036418;28;20303;-50
2021/07/13 02:56:51;;;;;;;2.10;2.00;;;;;;;;;;5036390;28;20237;-50
2021/07/13 02:59:19;;;;;;;2.47;1.70;;;;;;;;;;5036757;28;20175;-49
2021/07/13 03:01:46;;;;;;;2.25;2.05;;;;;;;;;;5036831;28;20586;-50
2021/07/13 03:04:12;;;;;;;3.05;1.90;;;;;;;;;;5036441;28;20247;-50
2021/07/13 03:06:39;;;;;;;2.38;2.05;;;;;;;;;;5036295;28;20183;-49
2021/07/13 03:09:06;;;;;;;3.08;1.83;;;;;;;;;;5036388;28;20171;-50
2021/07/13 03:11:33;;;;;;;2.08;1.85;;;;;;;;;;5036404;28;20190;-50
2021/07/13 03:13:59;;;;;;;2.60;1.98;;;;;;;;;;5036496;28;20222;-50
2021/07/13 03:16:26;;;;;;;2.92;2.10;;;;;;;;;;5035977;28;20183;-50
2021/07/13 03:18:52;;;;;;;3.10;1.80;;;;;;;;;;5036614;28;20187;-50
2021/07/13 03:21:22;;;;;;;2.42;2.22;;;;;;;;;;5036488;28;20199;-50
2021/07/13 03:23:49;;;;;;;2.05;1.95;;;;;;;;;;5035899;28;20211;-50
2021/07/13 03:26:15;;;;;;;2.25;2.00;;;;;;;;;;5035952;28;20325;-50
2021/07/13 03:28:42;;;;;;;3.05;1.90;;;;;;;;;;5035565;28;20172;-50
2021/07/13 03:31:09;;;;;;;2.05;1.80;;;;;;;;;;5036281;28;20172;-50
2021/07/13 03:33:35;;;;;;;2.00;1.70;;;;;;;;;;5023732;28;20238;-50
2021/07/13 03:36:02;;;;;;;2.75;1.80;;;;;;;;;;5035389;28;20210;-50
2021/07/13 03:38:28;;;;;;;2.75;2.03;;;;;;;;;;5036174;28;20203;-49
2021/07/13 03:40:54;;;;;;;3.55;1.98;;;;;;;;;;5035979;28;20207;-50
2021/07/13 03:43:20;;;;;;;2.42;1.98;;;;;;;;;;5036311;28;20168;-49
2021/07/13 03:45:47;;;;;;;2.38;1.85;;;;;;;;;;5035353;28;20202;-50
2021/07/13 03:48:13;;;;;;;2.35;2.15;;;;;;;;;;5036030;28;20551;-50
2021/07/13 03:50:40;;;;;;;3.25;2.00;;;;;;;;;;5035727;28;20190;-50
2021/07/13 03:53:06;;;;;;;2.20;2.00;;;;;;;;;;5035713;28;20199;-50
2021/07/13 03:55:32;;;;;;;2.10;1.90;;;;;;;;;;5035531;28;20593;-49
2021/07/13 03:57:58;;;;;;;4.13;1.85;;;;;;;;;;5035435;28;20179;-50
2021/07/13 04:00:27;;;;;;;2.30;2.10;;;;;;;;;;5035810;28;20219;-50
2021/07/13 04:02:53;;;;;;;2.00;1.90;;;;;;;;;;5036031;28;20210;-50
2021/07/13 04:05:19;;;;;;;2.30;2.17;;;;;;;;;;5035374;28;20245;-50
2021/07/13 04:07:45;;;;;;;2.25;1.90;;;;;;;;;;5035313;28;20464;-50
2021/07/13 04:10:15;;;;;;;2.92;1.80;;;;;;;;;;5035283;28;20184;-50
2021/07/13 04:12:42;;;;;;;2.15;1.88;;;;;;;;;;5035320;28;20450;-50
2021/07/13 04:15:08;;;;;;;3.67;2.05;;;;;;;;;;5035200;28;20267;-50
2021/07/13 04:17:34;;;;;;;6.82;2.33;;;;;;;;;;5035153;28;20189;-50
2021/07/13 04:20:00;;;;;;;2.08;1.98;;;;;;;;;;5035274;28;20298;-50
2021/07/13 04:22:26;;;;;;;2.88;1.92;;;;;;;;;;5035697;28;20164;-50
2021/07/13 04:24:52;;;;;;;4.63;2.40;;;;;;;;;;5035171;28;20544;-50
2021/07/13 04:27:18;;;;;;;2.00;1.80;;;;;;;;;;5034769;28;20172;-50
2021/07/13 04:29:44;;;;;;;3.38;2.25;;;;;;;;;;5035533;28;20195;-50
2021/07/13 04:32:10;;;;;;;3.33;2.03;;;;;;;;;;5035593;28;20190;-50
2021/07/13 04:34:36;;;;;;;2.63;2.10;;;;;;;;;;5034666;28;20226;-50
2021/07/13 04:37:02;;;;;;;4.93;2.20;;;;;;;;;;5034703;28;20184;-50
2021/07/13 04:39:28;;;;;;;5.68;2.40;;;;;;;;;;5034908;28;20254;-50
2021/07/13 04:41:54;;;;;;;2.60;2.40;;;;;;;;;;5035031;28;20171;-50
2021/07/13 04:44:20;;;;;;;3.25;2.25;;;;;;;;;;5035040;28;20271;-50
2021/07/13 04:46:46;;;;;;;5.75;2.05;;;;;;;;;;5034342;28;20194;-50
2021/07/13 04:49:12;;;;;;;6.57;2.53;;;;;;;;;;5034603;28;20168;-50
2021/07/13 04:51:39;;;;;;;3.53;2.25;;;;;;;;;;5034766;28;20198;-50
2021/07/13 04:54:05;;;;;;;3.40;2.08;;;;;;;;;;5033272;28;20184;-50
2021/07/13 04:56:31;;;;;;;2.40;2.17;;;;;;;;;;5034216;28;20457;-50
2021/07/13 04:58:57;;;;;;;2.28;2.03;;;;;;;;;;5034604;28;20172;-49
2021/07/13 05:01:23;;;;;;;4.18;2.33;;;;;;;;;;5035080;28;20197;-50
2021/07/13 05:03:49;;;;;;;3.92;2.22;;;;;;;;;;5033564;28;20176;-50
2021/07/13 05:06:15;;;;;;;2.58;2.30;;;;;;;;;;5034234;28;20168;-50
2021/07/13 05:08:42;;;;;;;2.58;2.17;;;;;;;;;;5034741;28;20559;-50
2021/07/13 05:11:08;;;;;;;2.78;2.00;;;;;;;;;;5034477;28;20215;-50
2021/07/13 05:13:34;;;;;;;3.75;2.10;;;;;;;;;;5034052;28;20447;-50
2021/07/13 05:16:01;;;;;;;1.95;1.85;;;;;;;;;;5033886;28;20190;-50
2021/07/13 05:18:27;;;;;;;2.38;2.17;;;;;;;;;;5034154;28;20168;-49
2021/07/13 05:21:02;;;;;;;3.50;2.47;;;;;;;;;;5034522;28;20200;-50
2021/07/13 05:23:28;;;;;;;4.20;2.20;;;;;;;;;;5034105;28;20438;-50
2021/07/13 05:25:54;;;;;;;2.50;2.20;;;;;;;;;;5033562;28;20267;-50
2021/07/13 05:28:20;;;;;;;2.35;2.15;;;;;;;;;;5034256;28;20542;-50
2021/07/13 05:30:47;;;;;;;2.45;2.10;;;;;;;;;;5034019;28;20450;-50
2021/07/13 05:33:14;;;;;;;2.33;2.13;;;;;;;;;;5034375;28;20222;-50
2021/07/13 05:35:42;;;;;;;2.28;2.10;;;;;;;;;;5033822;28;20473;-50
2021/07/13 05:38:08;;;;;;;3.05;2.08;;;;;;;;;;5033493;28;20179;-49
2021/07/13 05:40:34;;;;;;;3.75;2.17;;;;;;;;;;5033920;28;20520;-50
2021/07/13 05:43:00;;;;;;;2.42;2.22;;;;;;;;;;5034056;28;20178;-50
2021/07/13 05:45:26;;;;;;;2.55;2.35;;;;;;;;;;5033906;28;20455;-50
2021/07/13 05:47:52;;;;;;;2.28;2.05;;;;;;;;;;5033353;28;20630;-49
2021/07/13 05:50:18;;;;;;;3.58;2.50;;;;;;;;;;5034715;28;20251;-50
2021/07/13 05:52:44;;;;;;;2.47;2.30;;;;;;;;;;5037845;28;20191;-50
2021/07/13 05:55:10;;;;;;;3.38;2.28;;;;;;;;;;5037355;28;20373;-50
2021/07/13 05:57:36;;;;;;;4.40;2.13;;;;;;;;;;5037352;28;20188;-50
2021/07/13 06:00:06;;;;;;;2.67;2.28;;;;;;;;;;5037266;28;20279;-50
2021/07/13 06:02:32;;;;;;;2.58;2.28;;;;;;;;;;5038092;28;20476;-50
2021/07/13 06:04:58;;;;;;;3.25;2.30;;;;;;;;;;5037934;28;20168;-50
2021/07/13 06:07:24;;;;;;;1.80;1.70;;;;;;;;;;5037267;28;20466;-50
2021/07/13 06:09:50;;;;;;;2.33;2.13;;;;;;;;;;5037200;28;20184;-50
2021/07/13 06:12:16;;;;;;;3.15;1.95;;;;;;;;;;5037338;28;20218;-50
2021/07/13 06:14:42;;;;;;;2.58;2.38;;;;;;;;;;5036962;28;20176;-50
2021/07/13 06:17:10;;;;;;;2.50;2.30;;;;;;;;;;5036908;28;20183;-50
2021/07/13 06:19:36;;;;;;;2.00;1.90;;;;;;;;;;5036964;28;20172;-50
2021/07/13 06:22:03;;;;;;;3.05;2.10;;;;;;;;;;5037294;28;20184;-50
2021/07/13 06:24:29;;;;;;;2.38;2.17;;;;;;;;;;5036994;28;20478;-50
2021/07/13 06:26:55;;;;;;;4.43;2.30;;;;;;;;;;5036595;28;20602;-50
2021/07/13 06:29:21;;;;;;;2.60;2.20;;;;;;;;;;5037246;28;20194;-50
2021/07/13 06:31:47;;;;;;;2.50;2.30;;;;;;;;;;5037067;28;20180;-50
2021/07/13 06:34:12;;;;;;;3.08;2.63;;;;;;;;;;5037414;28;20183;-50
2021/07/13 06:36:39;;;;;;;2.25;2.10;;;;;;;;;;5036570;28;20183;-50
2021/07/13 06:39:05;;;;;;;2.47;2.28;;;;;;;;;;5036866;28;20188;-50
2021/07/13 06:41:31;;;;;;;2.42;2.22;;;;;;;;;;5036782;28;20333;-50
2021/07/13 06:43:57;;;;;;;2.58;2.35;;;;;;;;;;5036960;28;20573;-49
2021/07/13 06:46:22;;;;;;;3.22;2.63;;;;;;;;;;5036315;28;20196;-50
2021/07/13 06:48:48;;;;;;;2.83;2.63;;;;;;;;;;5037092;28;20196;-50
2021/07/13 06:51:14;;;;;;;2.40;2.20;;;;;;;;;;5036753;28;20190;-50
2021/07/13 06:53:40;;;;;;;2.60;2.40;;;;;;;;;;5037034;28;20171;-50
2021/07/13 06:56:07;;;;;;;6.40;2.45;;;;;;;;;;5036062;28;20194;-50
2021/07/13 06:58:33;;;;;;;2.50;2.30;;;;;;;;;;5036873;28;20184;-50
2021/07/13 07:00:59;;;;;;;2.85;2.65;;;;;;;;;;5036463;28;20618;-50
2021/07/13 07:03:25;;;;;;;2.42;2.22;;;;;;;;;;5035978;28;20460;-50
2021/07/13 07:05:51;;;;;;;2.80;2.47;;;;;;;;;;5035971;28;20556;-50
2021/07/13 07:08:17;;;;;;;2.22;2.03;;;;;;;;;;5036433;28;20183;-50
2021/07/13 07:10:43;;;;;;;2.25;2.13;;;;;;;;;;5036272;28;20171;-49
2021/07/13 07:13:09;;;;;;;2.13;2.03;;;;;;;;;;5036541;28;20512;-50
2021/07/13 07:15:35;;;;;;;2.35;2.20;;;;;;;;;;5036497;28;20264;-50
2021/07/13 07:18:01;;;;;;;2.17;1.98;;;;;;;;;;5047173;28;20262;-50
2021/07/13 07:20:28;;;;;;;2.85;2.05;;;;;;;;;;5056479;28;20195;-50
2021/07/13 07:22:58;;;;;;;1.98;1.88;;;;;;;;;;5053484;28;20218;-50
2021/07/13 07:25:27;;;;;;;2.50;2.30;;;;;;;;;;5023935;28;20259;-50
2021/07/13 07:27:55;;;;;;;2.78;2.58;;;;;;;;;;5035890;28;20218;-50
2021/07/13 07:30:22;;;;;;;2.97;2.78;;;;;;;;;;5036671;28;20164;-50
2021/07/13 07:32:48;;;;;;;2.85;2.58;;;;;;;;;;5036154;28;20192;-50
2021/07/13 07:35:15;;;;;;;2.53;2.22;;;;;;;;;;5035791;28;20188;-50
2021/07/13 07:37:41;;;;;;;2.55;2.35;;;;;;;;;;5035659;28;20567;-50
2021/07/13 07:40:08;;;;;;;2.60;2.40;;;;;;;;;;5035537;28;20234;-50
2021/07/13 07:42:34;;;;;;;2.55;2.35;;;;;;;;;;5036143;28;20222;-50
2021/07/13 07:45:00;;;;;;;2.60;2.40;;;;;;;;;;5035725;28;20211;-50
2021/07/13 07:47:27;;;;;;;2.45;2.25;;;;;;;;;;5034682;28;20259;-49
2021/07/13 07:49:53;;;;;;;2.42;2.20;;;;;;;;;;5035928;28;20544;-50
2021/07/13 07:52:19;;;;;;;2.15;2.00;;;;;;;;;;5035801;28;20210;-50
2021/07/13 07:54:45;;;;;;;2.03;1.88;;;;;;;;;;5035421;28;20165;-50
2021/07/13 07:57:11;;;;;;;2.05;1.95;;;;;;;;;;5035263;28;20176;-50
2021/07/13 07:59:37;;;;;;;2.03;1.92;;;;;;;;;;5034579;28;20216;-50
2021/07/13 08:02:04;;;;;;;1.90;1.80;;;;;;;;;;5035714;28;20172;-50
2021/07/13 08:04:30;;;;;;;2.33;2.20;;;;;;;;;;5035770;28;20172;-50
2021/07/13 08:06:56;;;;;;;2.20;2.00;;;;;;;;;;5034511;28;20440;-50
2021/07/13 08:09:22;;;;;;;2.03;1.83;;;;;;;;;;5034807;28;20278;-50
2021/07/13 08:11:48;;;;;;;2.85;2.13;;;;;;;;;;5033876;28;20758;-50
2021/07/13 08:14:14;;;;;;;4.43;2.20;;;;;;;;;;5033918;28;20175;-50
2021/07/13 08:16:43;;;;;;;2.40;2.20;;;;;;;;;;5033900;28;20570;-50
2021/07/13 08:19:09;;;;;;;2.67;1.98;;;;;;;;;;5034540;28;20221;-50
2021/07/13 08:21:35;;;;;;;2.20;2.00;;;;;;;;;;5033912;28;20330;-50
2021/07/13 08:24:01;;;;;;;3.63;2.05;;;;;;;;;;5034080;28;20267;-50
2021/07/13 08:26:27;;;;;;;2.08;1.90;;;;;;;;;;5034568;28;20184;-50
2021/07/13 08:28:53;;;;;;;2.03;1.83;;;;;;;;;;5035224;28;20171;-50
2021/07/13 08:31:20;;;;;;;2.20;2.00;;;;;;;;;;5035190;28;20255;-50
2021/07/13 08:33:46;;;;;;;2.28;1.95;;;;;;;;;;5034733;28;20188;-50
2021/07/13 08:36:12;;;;;;;2.20;2.00;;;;;;;;;;5034146;28;20203;-50
2021/07/13 08:38:38;;;;;;;2.75;2.17;;;;;;;;;;5035071;28;20234;-50
2021/07/13 08:41:04;;;;;;;2.15;2.00;;;;;;;;;;5034671;28;20222;-50
2021/07/13 08:43:30;;;;;;;2.70;2.50;;;;;;;;;;5035427;28;20428;-50
2021/07/13 08:45:56;;;;;;;4.65;2.72;;;;;;;;;;5034109;28;20210;-50
2021/07/13 08:48:23;;;;;;;2.92;2.67;;;;;;;;;;5034741;28;20574;-50
2021/07/13 08:50:59;;;;;;;3.53;2.63;;;;;;;;;;5034604;28;20242;-50
2021/07/13 08:53:26;;;;;;;3.55;3.22;;;;;;;;;;5034542;28;20199;-50
2021/07/13 08:55:54;;;;;;;3.50;3.20;;;;;;;;;;5034417;28;20192;-50
2021/07/13 08:58:21;;;;;;;3.50;3.20;;;;;;;;;;5034422;28;20187;-50
2021/07/13 09:00:47;;;;;;;4.25;3.53;;;;;;;;;;5034548;28;20591;-50
2021/07/13 09:03:20;;;;;;;3.50;3.20;;;;;;;;;;5034428;28;20281;-50
2021/07/13 09:06:04;;;;;;;3.60;3.30;;;;;;;;;;5034484;28;20170;-50
2021/07/13 09:08:31;;;;;;;3.58;3.28;;;;;;;;;;5034216;28;20199;-50
2021/07/13 09:11:04;;;;;;;3.75;3.42;;;;;;;;;;5034121;28;20570;-50
2021/07/13 09:13:31;;;;;;;3.40;3.10;;;;;;;;;;5034479;28;20563;-50
2021/07/13 09:15:57;;;;;;;4.00;3.60;;;;;;;;;;5033722;28;20815;-50
2021/07/13 09:18:37;;;;;;;4.68;3.60;;;;;;;;;;5034418;28;20164;-50
2021/07/13 09:21:14;;;;;;;3.60;3.30;;;;;;;;;;5034242;28;20251;-50
2021/07/13 09:23:59;;;;;;;4.90;3.80;;;;;;;;;;5034072;28;20171;-50
2021/07/13 09:26:42;;;;;;;4.00;3.70;;;;;;;;;;5032953;28;20179;-50
2021/07/13 09:29:29;;;;;;;4.40;3.42;;;;;;;;;;5034159;28;20255;-50
2021/07/13 09:31:55;;;;;;;4.53;3.60;;;;;;;;;;5034246;28;20176;-50
2021/07/13 09:34:21;;;;;;;3.92;3.63;;;;;;;;;;5033811;28;20582;-50
2021/07/13 09:36:54;;;;;;;3.90;3.60;;;;;;;;;;5033829;28;20183;-50
2021/07/13 09:39:24;;;;;;;3.95;3.65;;;;;;;;;;5033802;28;20187;-50
2021/07/13 09:41:54;;;;;;;4.78;3.88;;;;;;;;;;5033861;28;20207;-50
2021/07/13 09:44:23;;;;;;;3.92;3.55;;;;;;;;;;5032444;28;20172;-50
2021/07/13 09:46:50;;;;;;;3.95;3.47;;;;;;;;;;5031976;28;20172;-50
2021/07/13 09:49:19;;;;;;;4.32;4.03;;;;;;;;;;5032276;28;20239;-50
2021/07/13 09:51:45;;;;;;;4.90;4.50;;;;;;;;;;5031841;28;20207;-50
2021/07/13 09:54:30;;;;;;;4.47;4.07;;;;;;;;;;5032098;28;20544;-50
2021/07/13 09:56:57;;;;;;;5.60;4.30;;;;;;;;;;5031582;28;20190;-50
2021/07/13 09:59:23;;;;;;;4.90;4.35;;;;;;;;;;5033378;28;20454;-50
2021/07/13 10:01:50;;;;;;;6.20;4.93;;;;;;;;;;5033955;28;20215;-50
2021/07/13 10:04:16;;;;;;;5.35;4.85;;;;;;;;;;5033948;28;20185;-50
2021/07/13 10:06:44;;;;;;;4.45;4.05;;;;;;;;;;5033268;28;20179;-49
2021/07/13 10:09:13;;;;;;;5.50;4.85;;;;;;;;;;5033675;28;20168;-50
2021/07/13 10:11:41;;;;;;;5.40;4.90;;;;;;;;;;5033638;28;20472;-50
2021/07/13 10:14:07;;;;;;;5.88;4.65;;;;;;;;;;5033258;28;20194;-49
2021/07/13 10:16:33;;;;;;;7.32;4.88;;;;;;;;;;5033449;28;20172;-50
2021/07/13 10:19:00;;;;;;;5.78;5.22;;;;;;;;;;5033768;28;20178;-50
2021/07/13 10:21:27;;;;;;;6.10;5.50;;;;;;;;;;5033869;28;20200;-50
2021/07/13 10:23:53;;;;;;;5.65;5.10;;;;;;;;;;5033356;28;20333;-50
2021/07/13 10:26:38;;;;;;;5.55;5.07;;;;;;;;;;5032948;28;20210;-50
2021/07/13 10:29:24;;;;;;;5.45;5.05;;;;;;;;;;5033646;28;20565;-50
2021/07/13 10:31:50;;;;;;;5.95;5.45;;;;;;;;;;5033501;28;20478;-49
2021/07/13 10:34:36;;;;;;;6.28;5.68;;;;;;;;;;5033677;28;20589;-50
2021/07/13 10:37:20;;;;;;;6.57;5.72;;;;;;;;;;5034602;28;20769;-50
2021/07/13 10:39:46;;;;;;;5.63;5.22;;;;;;;;;;5036990;28;20191;-50
2021/07/13 10:42:32;;;;;;;6.07;5.10;;;;;;;;;;5036895;28;20281;-50
2021/07/13 10:45:11;;;;;;;7.78;5.43;;;;;;;;;;5037144;28;20187;-49
2021/07/13 10:47:37;;;;;;;5.93;5.43;;;;;;;;;;5036561;28;20171;-50
2021/07/13 10:50:18;;;;;;;5.88;5.38;;;;;;;;;;5036934;28;20566;-50
2021/07/13 10:52:53;;;;;;;6.13;5.63;;;;;;;;;;5036646;28;20187;-50
2021/07/13 10:55:31;;;;;;;5.93;5.40;;;;;;;;;;5036839;28;20208;-50
2021/07/13 10:58:19;;;;;;;7.68;5.60;;;;;;;;;;5036124;28;20179;-50
2021/07/13 11:00:51;;;;;;;6.10;5.50;;;;;;;;;;5037051;28;20540;-50
2021/07/13 11:03:32;;;;;;;5.97;5.47;;;;;;;;;;5036468;28;20188;-50
2021/07/13 11:06:08;;;;;;;6.35;5.75;;;;;;;;;;5036316;28;20168;-50
2021/07/13 11:08:52;;;;;;;6.18;5.68;;;;;;;;;;5021080;28;20199;-50
2021/07/13 11:11:21;;;;;;;5.97;5.47;;;;;;;;;;5036533;28;20184;-50
2021/07/13 11:13:48;;;;;;;6.10;5.50;;;;;;;;;;5036297;28;20307;-50
2021/07/13 11:16:15;;;;;;;6.00;5.50;;;;;;;;;;5036429;28;20168;-50
2021/07/13 11:18:42;;;;;;;6.10;5.50;;;;;;;;;;5036049;28;20298;-50
2021/07/13 11:21:21;;;;;;;5.90;5.38;;;;;;;;;;5036821;28;20204;-50
2021/07/13 11:23:49;;;;;;;5.55;5.05;;;;;;;;;;5036053;28;20176;-50
2021/07/13 11:26:15;;;;;;;5.18;4.75;;;;;;;;;;5036059;28;20191;-50
2021/07/13 11:28:45;;;;;;;5.57;4.68;;;;;;;;;;5036616;28;20167;-50
2021/07/13 11:31:18;;;;;;;5.13;4.65;;;;;;;;;;5036158;28;20297;-50
2021/07/13 11:33:52;;;;;;;5.30;4.80;;;;;;;;;;5036412;28;20172;-50
2021/07/13 11:36:24;;;;;;;5.75;4.80;;;;;;;;;;5035681;28;20638;-50
2021/07/13 11:38:50;;;;;;;5.45;4.85;;;;;;;;;;5035117;28;20188;-50
2021/07/13 11:41:16;;;;;;;5.15;4.70;;;;;;;;;;5035953;28;20204;-50
2021/07/13 11:43:43;;;;;;;5.15;4.45;;;;;;;;;;5035927;28;20242;-50
2021/07/13 11:46:10;;;;;;;4.95;4.55;;;;;;;;;;5035154;28;20211;-50
2021/07/13 11:48:36;;;;;;;4.82;4.43;;;;;;;;;;5035157;28;20180;-50
2021/07/13 11:51:03;;;;;;;4.60;4.20;;;;;;;;;;5036293;28;20219;-50
2021/07/13 11:53:29;;;;;;;4.78;4.38;;;;;;;;;;5036068;28;20538;-50
2021/07/13 11:55:59;;;;;;;4.80;4.30;;;;;;;;;;5034762;28;20187;-50
2021/07/13 11:58:29;;;;;;;4.85;4.45;;;;;;;;;;5035475;28;20598;-50
2021/07/13 12:01:14;;;;;;;4.68;4.30;;;;;;;;;;5035452;28;20211;-50
2021/07/13 12:03:40;;;;;;;4.68;4.28;;;;;;;;;;5035835;28;20234;-50
2021/07/13 12:06:17;;;;;;;4.25;3.85;;;;;;;;;;5035015;28;20298;-50
2021/07/13 12:08:43;;;;;;;4.53;4.13;;;;;;;;;;5035246;28;20191;-50
2021/07/13 12:11:11;;;;;;;4.43;4.05;;;;;;;;;;5035046;28;20275;-50
2021/07/13 12:13:37;;;;;;;5.78;3.85;;;;;;;;;;5035526;28;20199;-50
2021/07/13 12:16:16;;;;;;;5.00;4.43;;;;;;;;;;5035001;28;20222;-50
2021/07/13 12:18:42;;;;;;;5.03;4.53;;;;;;;;;;5035140;28;20195;-50
2021/07/13 12:21:12;;;;;;;4.90;4.43;;;;;;;;;;5035036;28;20432;-49
2021/07/13 12:23:38;;;;;;;4.50;4.10;;;;;;;;;;5035022;28;20183;-49
2021/07/13 12:26:22;;;;;;;4.53;4.07;;;;;;;;;;5034732;28;20448;-50
2021/07/13 12:29:03;;;;;;;4.45;4.05;;;;;;;;;;5035113;28;20177;-50
2021/07/13 12:31:30;;;;;;;4.15;3.85;;;;;;;;;;5035105;28;20179;-49
2021/07/13 12:33:56;;;;;;;4.53;4.13;;;;;;;;;;5034996;28;20253;-50
2021/07/13 12:36:26;;;;;;;4.70;4.22;;;;;;;;;;5034695;28;20252;-48
2021/07/13 12:38:52;;;;;;;4.57;4.18;;;;;;;;;;5034606;28;20176;-50
2021/07/13 12:41:20;;;;;;;5.13;4.65;;;;;;;;;;5034734;28;20395;-50
2021/07/13 12:43:46;;;;;;;5.55;4.38;;;;;;;;;;5035080;28;20176;-48
2021/07/13 12:46:25;;;;;;;4.55;4.15;;;;;;;;;;5033854;28;20447;-50
2021/07/13 12:48:51;;;;;;;5.13;4.53;;;;;;;;;;5034564;28;20180;-50
2021/07/13 12:51:24;;;;;;;4.90;4.50;;;;;;;;;;5034786;28;20230;-50
2021/07/13 12:54:07;;;;;;;4.78;4.35;;;;;;;;;;5014652;28;20195;-50
2021/07/13 12:56:33;;;;;;;4.65;4.25;;;;;;;;;;5030684;28;20194;-49
2021/07/13 12:59:09;;;;;;;4.90;4.50;;;;;;;;;;5034392;28;20204;-50
2021/07/13 13:01:36;;;;;;;5.85;4.55;;;;;;;;;;5033699;28;20329;-50
2021/07/13 13:04:11;;;;;;;4.50;3.90;;;;;;;;;;5034290;28;20184;-50
2021/07/13 13:06:39;;;;;;;4.75;4.32;;;;;;;;;;5033767;28;20246;-50
2021/07/13 13:09:09;;;;;;;4.90;4.40;;;;;;;;;;5033384;28;20207;-49
2021/07/13 13:11:35;;;;;;;4.93;4.47;;;;;;;;;;5034256;28;20179;-50
2021/07/13 13:14:03;;;;;;;5.50;5.03;;;;;;;;;;5034265;28;20188;-50
2021/07/13 13:16:31;;;;;;;5.60;5.03;;;;;;;;;;5033938;28;20576;-49
2021/07/13 13:18:57;;;;;;;5.57;5.07;;;;;;;;;;5034227;28;20460;-50
2021/07/13 13:21:24;;;;;;;5.47;5.07;;;;;;;;;;5034479;28;20529;-49
2021/07/13 13:23:54;;;;;;;6.15;5.55;;;;;;;;;;5033348;28;20202;-50
2021/07/13 13:26:20;;;;;;;6.43;5.65;;;;;;;;;;5033371;28;20555;-51
2021/07/13 13:28:46;;;;;;;5.63;5.13;;;;;;;;;;5033704;28;20265;-49
2021/07/13 13:31:12;;;;;;;6.22;5.72;;;;;;;;;;5034458;28;20634;-50
2021/07/13 13:33:39;;;;;;;6.75;6.05;;;;;;;;;;5033227;28;20500;-50
2021/07/13 13:38:37;;;;;;;7.32;6.55;;;;;;;;;;5033897;28;20230;-50
2021/07/13 13:41:04;;;;;;;7.47;6.72;;;;;;;;;;5032558;28;20200;-50
2021/07/13 13:43:31;;;;;;;12.27;6.63;;;;;;;;;;5032749;28;20327;-50
2021/07/13 13:45:57;;;;;;;14.50;6.68;;;;;;;;;;5030971;28;20192;-50
2021/07/13 13:48:23;;;;;;;8.07;6.70;;;;;;;;;;5031983;28;20265;-50
2021/07/13 13:50:49;;;;;;;9.55;6.45;;;;;;;;;;5031485;28;20188;-50
2021/07/13 13:53:15;;;;;;;8.52;6.15;;;;;;;;;;5032530;28;20192;-50
2021/07/13 13:55:41;;;;;;;11.07;6.75;;;;;;;;;;5032558;28;20552;-49
2021/07/13 13:58:07;;;;;;;6.93;6.22;;;;;;;;;;5032971;28;20184;-49
2021/07/13 14:00:33;;;;;;;10.02;6.90;;;;;;;;;;5033406;28;20242;-50
2021/07/13 14:02:59;;;;;;;8.15;7.13;;;;;;;;;;5033868;28;20200;-50
2021/07/13 14:05:25;;;;;;;8.93;6.60;;;;;;;;;;5034239;28;20172;-51
2021/07/13 14:07:51;;;;;;;9.52;6.93;;;;;;;;;;5033493;28;20172;-50
2021/07/13 14:10:18;;;;;;;7.80;6.47;;;;;;;;;;5033582;28;20186;-50
2021/07/13 14:12:44;;;;;;;7.68;7.07;;;;;;;;;;5036735;28;20176;-50
2021/07/13 14:15:11;;;;;;;7.68;6.97;;;;;;;;;;5037964;28;20179;-50
2021/07/13 14:17:38;;;;;;;8.25;6.85;;;;;;;;;;5036746;28;20192;-49
2021/07/13 14:20:04;;;;;;;7.63;6.93;;;;;;;;;;5037426;28;20253;-49
2021/07/13 14:22:30;;;;;;;8.00;7.20;;;;;;;;;;5037234;28;20211;-50
2021/07/13 14:24:56;;;;;;;8.50;7.60;;;;;;;;;;5037520;28;20452;-50
2021/07/13 14:27:22;;;;;;;8.20;7.50;;;;;;;;;;5037096;28;20259;-49
2021/07/13 14:29:48;;;;;;;9.07;7.10;;;;;;;;;;5037626;28;20566;-49
2021/07/13 14:32:14;;;;;;;8.07;7.38;;;;;;;;;;5036737;28;20179;-49
2021/07/13 14:34:40;;;;;;;8.07;7.38;;;;;;;;;;5036524;28;20183;-49
2021/07/13 14:37:06;;;;;;;8.15;7.45;;;;;;;;;;5037148;28;20180;-50
2021/07/13 14:39:32;;;;;;;8.45;7.68;;;;;;;;;;5037241;28;20279;-50
2021/07/13 14:41:58;;;;;;;8.30;7.47;;;;;;;;;;5037096;28;20344;-50
2021/07/13 14:44:24;;;;;;;8.77;7.95;;;;;;;;;;5036838;28;20215;-50
2021/07/13 14:46:50;;;;;;;8.05;7.35;;;;;;;;;;5036710;28;20504;-50
2021/07/13 14:49:16;;;;;;;7.97;7.28;;;;;;;;;;5036617;28;20180;-50
2021/07/13 14:51:42;;;;;;;8.43;7.68;;;;;;;;;;5036945;28;20626;-50